AIRPORT METAR

METAR FOR WIII
ADDS - METARS form results

(1751 UTC 20 July 2019)
Data provider http://aviationweather.gov/metar/data/
 
METAR text: WIII 201730Z 27007KT 5000 HZ SCT020 27/22 Q1010 NOSIG
Conditions at: WIII (SOEKARNO-HATTA I, ID) observed 1730 UTC 20 July 2019
Temperature: 27.0°C (81°F)
Dewpoint: 22.0°C (72°F) [RH = 74%]
Pressure (altimeter): 29.82 inches Hg (1010.0 mb)
Winds: from the W (270 degrees) at 8 MPH (7 knots; 3.6 m/s)
Visibility: 3 miles ( 5 km)
Ceiling: at least 12,000 feet AGL
Clouds: scattered clouds at 2000 feet AGL
Weather: HZ  (haze)

METAR text: WIII 201700Z 26007KT 5000 HZ SCT020 27/22 Q1010 NOSIG
Conditions at: WIII (SOEKARNO-HATTA I, ID) observed 1700 UTC 20 July 2019
Temperature: 27.0°C (81°F)
Dewpoint: 22.0°C (72°F) [RH = 74%]
Pressure (altimeter): 29.82 inches Hg (1010.0 mb)
Winds: from the W (260 degrees) at 8 MPH (7 knots; 3.6 m/s)
Visibility: 3 miles ( 5 km)
Ceiling: at least 12,000 feet AGL
Clouds: scattered clouds at 2000 feet AGL
Weather: HZ  (haze)

Forecast for: WIII (SOEKARNO-HATTA I, ID)
Text: TAF WIII 201700Z 2018/2124 VRB03KT 5000 HZ SCT020
Forecast period: 1800 UTC 20 July 2019 to 0100 UTC 21 July 2019
Forecast type: FROM: standard forecast or significant change
Winds: variable direction winds at 3 MPH (3 knots; 1.5 m/s)
Visibility: 3 miles (5 km)
Ceiling: at least 12,000 feet AGL
Clouds: scattered clouds at 2000 feet AGL
Weather: HZ  (haze)
Text: BECMG 2101/2103 08010KT 9999 NSW
Forecast period: 0100 UTC 21 July 2019 to 0000 UTC 22 July 2019
Forecast type: BECOMING: Conditions expected to become as follows by 0300 UTC 21 July 2019
Winds: from the E (80 degrees) at 12 MPH (10 knots; 5.1 m/s)
Visibility: 6 or more miles 10+ km)
Ceiling: at least 12,000 feet AGL
Clouds: scattered clouds at 2000 feet AGL
Weather: NSW  (no significant weather)

AIRPORT MAP

 RUNWAY INFORMATION
Runway 07L Runway length 11812 ft Runway width 197 ft
Runway elevation 29 ft Runway displaced threshold 0 ft Runway heading 68
Runway 25R Runway length 11812 ft Runway width 197 ft
Runway elevation 21 ft Runway displaced threshold 0 ft Runway heading 248
Runway 07R Runway length 12008 ft Runway width 197 ft
Runway elevation 34 ft Runway displaced threshold 0 ft Runway heading 68
Runway 25L Runway length 12008 ft Runway width 197 ft
Runway elevation 27 ft Runway displaced threshold 0 ft Runway heading 248

 AIRPORT FREQUENCIES
Type APP Name JAKARTA AP Frequency 119.75 MHZ
Type ARR Name JAKARTA AR Frequency 125.45 MHZ
Type ATIS Name ATIS Frequency 126.85 MHZ
Type CLD Name CLNC DEL Frequency 121.95 MHZ
Type FSS Name JAKARTA CE Frequency 129.7 MHZ
Type GND Name GND Frequency 121.6 MHZ
Type INFO Name PABELOKAN Frequency 129.8 MHZ
Type TWR Name TWR Frequency 118.75 MHZ

 AIRPORT NEAR NAVIGATION AIDS
Type VOR-DME Name Cengkareng Frequency 113600 KHZ
Type VOR-DME Name Jakarta Frequency 114600 KHZ



© 2017 - Royal Sky Service, All Right Reserved. | Design & Developed by Davide Torresan